East Glenville, New York
Current Conditions -  °F | °C
As of 12:51 PM on Saturday 20 Dec 2014 (Local Time) from KALB Reporting Station
Broken Clouds Broken Clouds  
Wind Chill: 29°   Ceiling: 3500
Heat Index: 29°   Visibility: 10mi
Dew Point: 17°   Wind: 0mph
Humidity: 61%   Direction: NA
Pressure: 30.3"   Gusts: NA
Location:  42.8821°N, 73.9859°W
Report Text: KALB 201751Z 00000KT 10SM BKN035 M02/M08 A3030 RMK AO2 SLP263 4/001 T10171083 11017 21050 56013
Loading
Personal Weather Stations






























Interactive Weather Map New forecast layout! Learn more

10-Day Weather Forecast

Advertisements
Track Severe Weather on mobile